Weather History for KGEV - January, 2008

Change the Weather History Date:

Thursday, January 3, 2008

  Actual Average Record
Temperature  
Mean Temperature 20 °F -  
Max Temperature 28 °F 44 °F 66 °F (2004)
Min Temperature 12 °F 24 °F -2 °F (1979)
Degree Days  
Heating Degree Days 45    
Moisture  
Dew Point 3 °F    
Average Humidity 54    
Maximum Humidity 73    
Minimum Humidity 24    
Precipitation  
Precipitation 0.00 in - - ()
Sea Level Pressure  
Sea Level Pressure 30.50 in    
Wind  
Wind Speed 13 mph (NW)    
Max Wind Speed 23 mph    
Max Gust Speed 31 mph    
Visibility 9 miles    
Events Snow    
Averages and records for this station are not official NWS values.
T = Trace of Precipitation, MM = Missing Value Source: NWS Daily Summary

Daily Weather History Graph

Daily Weather History Graph

Search for Another Location

Airport or City:

Trip Planner

Search our weather history database for the weather conditions in past years. The results will help you decide how hot, cold, wet, or windy it might be!

Date:

Astronomy

Jan. 03, 2008 Rise Set
Actual Time 7:37 AM EST 5:22 PM EST
Civil Twilight 7:09 AM EST 5:51 PM EST
Nautical Twilight 6:36 AM EST 6:23 PM EST
Astronomical Twilight 6:05 AM EST 6:54 PM EST
Moon 3:27 AM EST (1/3) 1:27 PM EST (1/3)
Length of Visible Light 10h 41m
Length of Day
9h 44m
Waning Crescent, 20% of the Moon is Illuminated
Jan 3
Waning Crescent
Jan 8
New
Jan 15
First Quarter
Jan 22
Full
Jan 30
Last Quarter

Hourly Weather History & Observations

Time (EST) Temp. Windchill Dew Point Humidity Pressure Visibility Wind Dir Wind Speed Gust Speed Precip Events Conditions
12:01 AM 12.2 °F -4.8 °F 3.2 °F 67% 30.38 in 10.0 mi NW 17.3 mph 27.6 mph N/A   Clear
12:22 AM 12.2 °F -6.3 °F 3.2 °F 67% 30.39 in 7.0 mi NW 20.7 mph 31.1 mph N/A Snow Light Snow
12:42 AM 12.2 °F -4.8 °F 3.2 °F 67% 30.39 in 5.0 mi NW 17.3 mph 26.5 mph N/A Snow Light Snow
1:01 AM 12.2 °F -3.1 °F 3.2 °F 67% 30.40 in 5.0 mi NW 13.8 mph 20.7 mph N/A Snow Light Snow
1:23 AM 12.2 °F -2.5 °F 3.2 °F 67% 30.40 in 7.0 mi NW 12.7 mph 23.0 mph N/A Snow Light Snow
2:04 AM 12.2 °F -4.8 °F 3.2 °F 67% 30.41 in 7.0 mi NW 17.3 mph 24.2 mph N/A Snow Light Snow
2:21 AM 12.2 °F -3.7 °F 5.0 °F 73% 30.41 in 5.0 mi NNW 15.0 mph 23.0 mph N/A Snow Light Snow
2:44 AM 12.2 °F -4.8 °F 5.0 °F 73% 30.42 in 4.0 mi NNW 17.3 mph 21.9 mph N/A Snow Light Snow
3:03 AM 12.2 °F -4.3 °F 5.0 °F 73% 30.41 in 4.0 mi NW 16.1 mph 23.0 mph N/A Snow Light Snow
3:21 AM 12.2 °F -5.3 °F 3.2 °F 67% 30.41 in 7.0 mi NW 18.4 mph 25.3 mph N/A Snow Light Snow
3:41 AM 12.2 °F -6.7 °F 3.2 °F 67% 30.41 in 7.0 mi NW 21.9 mph 31.1 mph N/A Snow Light Snow
4:03 AM 12.2 °F -3.1 °F 3.2 °F 67% 30.42 in 10.0 mi NW 13.8 mph 28.8 mph N/A   Scattered Clouds
4:24 AM 12.2 °F -5.3 °F 3.2 °F 67% 30.42 in 10.0 mi NW 18.4 mph 26.5 mph N/A   Clear
4:41 AM 12.2 °F -7.1 °F 3.2 °F 67% 30.43 in 10.0 mi NW 23.0 mph 27.6 mph N/A   Clear
5:03 AM 12.2 °F -3.1 °F 5.0 °F 73% 30.44 in 10.0 mi NW 13.8 mph 25.3 mph N/A Snow Light Snow
5:21 AM 12.2 °F -2.5 °F 5.0 °F 73% 30.45 in 10.0 mi NW 12.7 mph 21.9 mph N/A Snow Light Snow
5:41 AM 12.2 °F -0.2 °F 3.2 °F 67% 30.47 in 10.0 mi NW 9.2 mph 23.0 mph N/A Snow Light Snow
6:01 AM 12.2 °F -2.5 °F 3.2 °F 67% 30.49 in 10.0 mi NW 12.7 mph 17.3 mph N/A   Clear
6:21 AM 12.2 °F -3.1 °F 5.0 °F 73% 30.50 in 10.0 mi WNW 13.8 mph 19.6 mph N/A   Clear
6:41 AM 12.2 °F -0.2 °F 5.0 °F 73% 30.52 in 10.0 mi WNW 9.2 mph 17.3 mph N/A Snow Light Snow
7:01 AM 12.2 °F -1.8 °F 5.0 °F 73% 30.52 in 10.0 mi WNW 11.5 mph 19.6 mph N/A   Scattered Clouds
7:22 AM 12.2 °F 1.7 °F 5.0 °F 73% 30.53 in 10.0 mi WNW 6.9 mph - N/A Snow Light Snow
7:41 AM 12.2 °F -1.0 °F 3.2 °F 67% 30.53 in 10.0 mi NW 10.4 mph - N/A   Scattered Clouds
8:01 AM 12.2 °F -1.0 °F 3.2 °F 67% 30.54 in 10.0 mi WNW 10.4 mph - N/A   Clear
8:22 AM 12.2 °F 4.3 °F 3.2 °F 67% 30.56 in 10.0 mi West 4.6 mph - N/A Snow Light Snow
8:41 AM 12.2 °F 6.1 °F 3.2 °F 67% 30.57 in 7.0 mi WNW 3.5 mph - N/A Snow Light Snow
9:01 AM 14.0 °F 5.1 °F 3.2 °F 62% 30.57 in 10.0 mi WNW 5.8 mph - N/A Snow Light Snow
9:21 AM 15.8 °F 8.6 °F 3.2 °F 58% 30.58 in 10.0 mi West 4.6 mph - N/A   Clear
9:41 AM 15.8 °F 6.1 °F 3.2 °F 58% 30.58 in 10.0 mi West 6.9 mph - N/A   Clear
10:03 AM 17.6 °F 12.3 °F 5.0 °F 58% 30.59 in 10.0 mi WSW 3.5 mph - N/A   Clear
10:21 AM 17.6 °F - 5.0 °F 58% 30.60 in 10.0 mi Calm Calm - N/A   Clear
10:43 AM 19.4 °F - 6.8 °F 58% 30.60 in 10.0 mi Calm Calm - N/A   Clear
11:01 AM 19.4 °F 9.5 °F 5.0 °F 54% 30.59 in 10.0 mi NNW 8.1 mph - N/A   Clear
11:21 AM 21.2 °F 12.6 °F 5.0 °F 50% 30.59 in 10.0 mi NNW 6.9 mph - N/A   Clear
11:41 AM 21.2 °F 10.1 °F 3.2 °F 46% 30.57 in 10.0 mi NNW 10.4 mph - N/A   Clear
12:01 PM 23.0 °F 13.1 °F 5.0 °F 46% 30.56 in 10.0 mi NNW 9.2 mph - N/A   Clear
12:21 PM 23.0 °F 13.1 °F 5.0 °F 46% 30.55 in 10.0 mi NNW 9.2 mph - N/A   Clear
12:41 PM 24.8 °F 16.1 °F 5.0 °F 43% 30.54 in 10.0 mi NW 8.1 mph - N/A   Clear
1:01 PM 24.8 °F 14.6 °F 5.0 °F 43% 30.54 in 10.0 mi NW 10.4 mph - N/A   Clear
1:21 PM 26.6 °F 16.8 °F 3.2 °F 37% 30.52 in 10.0 mi NW 10.4 mph - N/A   Clear
1:42 PM 26.6 °F 16.2 °F 1.4 °F 34% 30.51 in 10.0 mi NW 11.5 mph 17.3 mph N/A   Clear
2:02 PM 26.6 °F 16.2 °F -0.4 °F 31% 30.51 in 10.0 mi NW 11.5 mph 18.4 mph N/A   Clear
2:21 PM 28.4 °F 18.0 °F 1.4 °F 31% 30.50 in 10.0 mi NW 12.7 mph 18.4 mph N/A   Clear
2:41 PM 28.4 °F 17.5 °F 1.4 °F 31% 30.50 in 10.0 mi NW 13.8 mph 18.4 mph N/A   Clear
3:01 PM 28.4 °F 18.5 °F -0.4 °F 29% 30.49 in 10.0 mi NW 11.5 mph - N/A   Clear
3:21 PM 28.4 °F 19.1 °F -0.4 °F 29% 30.50 in 10.0 mi WNW 10.4 mph - N/A   Clear
3:41 PM 26.6 °F 16.2 °F -2.2 °F 29% 30.50 in 10.0 mi WNW 11.5 mph - N/A   Clear
4:01 PM 26.6 °F 18.2 °F -2.2 °F 29% 30.50 in 10.0 mi WNW 8.1 mph - N/A   Clear
4:21 PM 26.6 °F 20.0 °F -5.8 °F 24% 30.51 in 10.0 mi NW 5.8 mph - N/A   Clear
4:41 PM 26.6 °F 21.2 °F -4.0 °F 26% 30.51 in 10.0 mi WNW 4.6 mph - N/A   Clear
5:21 PM 24.8 °F 16.9 °F 1.4 °F 36% 30.52 in 10.0 mi West 6.9 mph - N/A   Clear
5:41 PM 24.8 °F 16.1 °F -0.4 °F 34% 30.53 in 10.0 mi West 8.1 mph - N/A   Clear
6:01 PM 23.0 °F 13.9 °F 1.4 °F 39% 30.54 in 10.0 mi West 8.1 mph - N/A   Clear
6:22 PM 23.0 °F 15.8 °F 1.4 °F 39% 30.54 in 10.0 mi West 5.8 mph - N/A   Clear
6:41 PM 23.0 °F 15.8 °F 3.2 °F 43% 30.55 in 10.0 mi West 5.8 mph - N/A   Clear
7:02 PM 23.0 °F 17.0 °F 5.0 °F 46% 30.55 in 10.0 mi WNW 4.6 mph - N/A   Clear
7:23 PM 23.0 °F 15.8 °F 5.0 °F 46% 30.55 in 10.0 mi West 5.8 mph - N/A   Clear
7:41 PM 23.0 °F 15.8 °F 6.8 °F 50% 30.55 in 10.0 mi WNW 5.8 mph - N/A   Clear
8:03 PM 21.2 °F - 5.0 °F 50% 30.55 in 10.0 mi Calm Calm - N/A   Clear
8:21 PM 19.4 °F - 3.2 °F 49% 30.56 in 10.0 mi Calm Calm - N/A   Clear
8:41 PM 19.4 °F - 5.0 °F 54% 30.55 in 10.0 mi Calm Calm - N/A   Clear
9:01 PM 19.4 °F 14.3 °F 5.0 °F 54% 30.55 in 10.0 mi WSW 3.5 mph - N/A   Clear
9:21 PM 19.4 °F - 6.8 °F 58% 30.55 in 10.0 mi Calm Calm - N/A   Clear
9:43 PM 19.4 °F - 6.8 °F 58% 30.55 in 10.0 mi Calm Calm - N/A   Clear
10:01 PM 19.4 °F - 6.8 °F 58% 30.56 in 10.0 mi Calm Calm - N/A   Clear
10:22 PM 17.6 °F - 6.8 °F 63% 30.56 in 10.0 mi Calm Calm - N/A   Clear
10:41 PM 17.6 °F - 6.8 °F 63% 30.55 in 10.0 mi Calm Calm - N/A   Clear
11:01 PM 19.4 °F - 5.0 °F 54% 30.54 in 10.0 mi Calm Calm - N/A   Clear
11:24 PM 17.6 °F - 6.8 °F 63% 30.54 in 10.0 mi Calm Calm - N/A   Clear
11:41 PM 17.6 °F - 5.0 °F 58% 30.54 in 10.0 mi Calm Calm - N/A   Clear